sensor_id;sensor_type;location;lat;lon;timestamp;pressure;altitude;pressure_sealevel;temperature;humidity
75146;BME280;63641;46.526;24.612;2023-02-01T00:00:30;97086.00;;;-0.79;72.77
75146;BME280;63641;46.526;24.612;2023-02-01T00:02:56;97086.66;;;-0.83;72.54
75146;BME280;63641;46.526;24.612;2023-02-01T00:05:24;97074.44;;;-0.91;72.81
75146;BME280;63641;46.526;24.612;2023-02-01T00:07:50;97080.34;;;-0.89;73.06
75146;BME280;63641;46.526;24.612;2023-02-01T00:10:17;97078.72;;;-0.90;72.89
75146;BME280;63641;46.526;24.612;2023-02-01T00:12:44;97086.03;;;-0.85;73.02
75146;BME280;63641;46.526;24.612;2023-02-01T00:15:11;97086.03;;;-0.85;73.16
75146;BME280;63641;46.526;24.612;2023-02-01T00:17:38;97079.34;;;-0.88;72.77
75146;BME280;63641;46.526;24.612;2023-02-01T00:20:05;97087.69;;;-0.84;72.59
75146;BME280;63641;46.526;24.612;2023-02-01T00:22:32;97084.19;;;-0.85;72.78
75146;BME280;63641;46.526;24.612;2023-02-01T00:24:59;97083.84;;;-0.88;72.57
75146;BME280;63641;46.526;24.612;2023-02-01T00:27:26;97076.09;;;-0.97;72.70
75146;BME280;63641;46.526;24.612;2023-02-01T00:29:54;97076.50;;;-0.93;72.79
75146;BME280;63641;46.526;24.612;2023-02-01T00:32:22;97079.75;;;-0.91;72.82
75146;BME280;63641;46.526;24.612;2023-02-01T00:34:49;97078.34;;;-0.93;72.58
75146;BME280;63641;46.526;24.612;2023-02-01T00:37:15;97076.50;;;-0.93;72.81
75146;BME280;63641;46.526;24.612;2023-02-01T00:39:42;97074.25;;;-0.96;72.58
75146;BME280;63641;46.526;24.612;2023-02-01T00:42:09;97082.03;;;-0.94;72.75
75146;BME280;63641;46.526;24.612;2023-02-01T00:44:36;97059.25;;;-1.09;72.20
75146;BME280;63641;46.526;24.612;2023-02-01T00:47:03;97071.06;;;-1.05;72.48
75146;BME280;63641;46.526;24.612;2023-02-01T00:49:30;97066.16;;;-1.08;72.44
75146;BME280;63641;46.526;24.612;2023-02-01T00:51:56;97063.78;;;-1.16;72.46
75146;BME280;63641;46.526;24.612;2023-02-01T00:54:23;97072.97;;;-1.18;72.33
75146;BME280;63641;46.526;24.612;2023-02-01T00:56:51;97059.38;;;-1.29;72.45
75146;BME280;63641;46.526;24.612;2023-02-01T00:59:17;97065.25;;;-1.27;72.82
75146;BME280;63641;46.526;24.612;2023-02-01T01:01:44;97067.53;;;-1.30;72.77
75146;BME280;63641;46.526;24.612;2023-02-01T01:04:11;97049.41;;;-1.40;72.54
75146;BME280;63641;46.526;24.612;2023-02-01T01:06:38;97037.41;;;-1.49;72.34
75146;BME280;63641;46.526;24.612;2023-02-01T01:09:06;97050.84;;;-1.44;72.67
75146;BME280;63641;46.526;24.612;2023-02-01T01:11:38;97045.97;;;-1.47;72.75
75146;BME280;63641;46.526;24.612;2023-02-01T01:14:06;97053.94;;;-1.47;72.76
75146;BME280;63641;46.526;24.612;2023-02-01T01:16:33;97056.78;;;-1.49;72.75
75146;BME280;63641;46.526;24.612;2023-02-01T01:19:01;97059.88;;;-1.52;72.58
75146;BME280;63641;46.526;24.612;2023-02-01T01:21:29;97053.97;;;-1.54;72.54
75146;BME280;63641;46.526;24.612;2023-02-01T01:23:56;97062.13;;;-1.55;72.44
75146;BME280;63641;46.526;24.612;2023-02-01T01:26:25;97046.84;;;-1.60;72.33
75146;BME280;63641;46.526;24.612;2023-02-01T01:28:55;97041.16;;;-1.70;72.57
75146;BME280;63641;46.526;24.612;2023-02-01T01:31:22;97049.75;;;-1.68;72.30
75146;BME280;63641;46.526;24.612;2023-02-01T01:33:53;97042.81;;;-1.69;72.57
75146;BME280;63641;46.526;24.612;2023-02-01T01:36:21;97051.78;;;-1.70;72.64
75146;BME280;63641;46.526;24.612;2023-02-01T01:38:48;97052.19;;;-1.73;72.51
75146;BME280;63641;46.526;24.612;2023-02-01T01:41:18;97042.41;;;-1.73;72.72
75146;BME280;63641;46.526;24.612;2023-02-01T01:43:57;97046.53;;;-1.77;72.66
75146;BME280;63641;46.526;24.612;2023-02-01T01:46:27;97042.63;;;-1.81;72.36
75146;BME280;63641;46.526;24.612;2023-02-01T01:49:04;97040.19;;;-1.82;72.83
75146;BME280;63641;46.526;24.612;2023-02-01T01:51:35;97042.84;;;-1.82;72.63
75146;BME280;63641;46.526;24.612;2023-02-01T01:54:11;97035.72;;;-1.88;72.51
75146;BME280;63641;46.526;24.612;2023-02-01T01:56:40;97032.09;;;-1.94;72.54
75146;BME280;63641;46.526;24.612;2023-02-01T01:59:08;97039.00;;;-1.93;72.65
75146;BME280;63641;46.526;24.612;2023-02-01T02:01:35;97022.13;;;-1.99;72.81
75146;BME280;63641;46.526;24.612;2023-02-01T02:04:02;97040.84;;;-1.93;72.77
75146;BME280;63641;46.526;24.612;2023-02-01T02:06:40;97046.97;;;-1.93;72.84
75146;BME280;63641;46.526;24.612;2023-02-01T02:09:12;97034.13;;;-1.96;72.64
75146;BME280;63641;46.526;24.612;2023-02-01T02:11:38;97028.00;;;-1.97;72.96
75146;BME280;63641;46.526;24.612;2023-02-01T02:14:08;97023.50;;;-1.96;72.88
75146;BME280;63641;46.526;24.612;2023-02-01T02:19:18;97030.63;;;-1.90;73.03
75146;BME280;63641;46.526;24.612;2023-02-01T02:34:15;97035.91;;;-1.77;72.66
75146;BME280;63641;46.526;24.612;2023-02-01T02:42:04;97038.34;;;-1.75;72.84
75146;BME280;63641;46.526;24.612;2023-02-01T02:53:41;97018.75;;;-1.81;73.13
75146;BME280;63641;46.526;24.612;2023-02-01T02:56:29;97028.13;;;-1.78;72.85
75146;BME280;63641;46.526;24.612;2023-02-01T02:59:17;97026.94;;;-1.82;73.09
75146;BME280;63641;46.526;24.612;2023-02-01T03:02:05;97024.31;;;-1.89;73.03
75146;BME280;63641;46.526;24.612;2023-02-01T03:04:55;97019.41;;;-1.92;73.21
75146;BME280;63641;46.526;24.612;2023-02-01T03:08:01;97028.38;;;-1.86;72.95
75146;BME280;63641;46.526;24.612;2023-02-01T03:13:13;97019.63;;;-1.93;73.54
75146;BME280;63641;46.526;24.612;2023-02-01T03:16:00;97007.00;;;-1.98;73.37
75146;BME280;63641;46.526;24.612;2023-02-01T03:21:30;97022.66;;;-1.83;73.50
75146;BME280;63641;46.526;24.612;2023-02-01T03:24:02;97009.19;;;-1.88;73.54
75146;BME280;63641;46.526;24.612;2023-02-01T03:26:33;97011.84;;;-1.82;73.70
75146;BME280;63641;46.526;24.612;2023-02-01T03:29:08;97006.72;;;-1.77;73.45
75146;BME280;63641;46.526;24.612;2023-02-01T03:31:38;97008.94;;;-1.74;73.68
75146;BME280;63641;46.526;24.612;2023-02-01T03:34:04;96994.88;;;-1.74;73.62
75146;BME280;63641;46.526;24.612;2023-02-01T03:36:48;96998.94;;;-1.72;73.89
75146;BME280;63641;46.526;24.612;2023-02-01T03:39:32;96983.84;;;-1.71;73.91
75146;BME280;63641;46.526;24.612;2023-02-01T03:42:28;96991.34;;;-1.61;73.63
75146;BME280;63641;46.526;24.612;2023-02-01T03:47:34;96979.88;;;-1.55;73.97
75146;BME280;63641;46.526;24.612;2023-02-01T03:50:07;96985.38;;;-1.50;73.91
75146;BME280;63641;46.526;24.612;2023-02-01T03:52:58;96989.22;;;-1.46;73.92
75146;BME280;63641;46.526;24.612;2023-02-01T03:55:23;96992.28;;;-1.42;73.86
75146;BME280;63641;46.526;24.612;2023-02-01T03:57:56;96986.72;;;-1.41;73.79
75146;BME280;63641;46.526;24.612;2023-02-01T04:00:25;96989.78;;;-1.37;74.00
75146;BME280;63641;46.526;24.612;2023-02-01T04:02:53;96977.94;;;-1.35;73.88
75146;BME280;63641;46.526;24.612;2023-02-01T04:05:20;96975.84;;;-1.33;74.22
75146;BME280;63641;46.526;24.612;2023-02-01T04:07:48;96969.13;;;-1.29;74.11
75146;BME280;63641;46.526;24.612;2023-02-01T04:10:15;96955.22;;;-1.31;74.30
75146;BME280;63641;46.526;24.612;2023-02-01T04:12:45;96974.34;;;-1.22;74.50
75146;BME280;63641;46.526;24.612;2023-02-01T04:15:11;96972.97;;;-1.25;74.41
75146;BME280;63641;46.526;24.612;2023-02-01T04:17:39;96971.88;;;-1.17;74.87
75146;BME280;63641;46.526;24.612;2023-02-01T04:20:05;96966.97;;;-1.13;74.48
75146;BME280;63641;46.526;24.612;2023-02-01T04:22:32;96953.50;;;-1.18;74.65
75146;BME280;63641;46.526;24.612;2023-02-01T04:24:59;96965.69;;;-1.11;74.63
75146;BME280;63641;46.526;24.612;2023-02-01T04:27:26;96969.34;;;-1.05;74.73
75146;BME280;63641;46.526;24.612;2023-02-01T04:29:53;96968.31;;;-1.04;75.24
75146;BME280;63641;46.526;24.612;2023-02-01T04:32:23;96960.34;;;-1.04;74.59
75146;BME280;63641;46.526;24.612;2023-02-01T04:34:49;96973.34;;;-0.96;75.18
75146;BME280;63641;46.526;24.612;2023-02-01T04:37:16;96975.81;;;-0.94;74.89
75146;BME280;63641;46.526;24.612;2023-02-01T04:39:43;96978.22;;;-0.93;74.87
75146;BME280;63641;46.526;24.612;2023-02-01T04:42:09;96979.50;;;-0.95;75.09
75146;BME280;63641;46.526;24.612;2023-02-01T04:44:36;96978.22;;;-0.93;74.99
75146;BME280;63641;46.526;24.612;2023-02-01T04:47:08;96979.50;;;-0.95;75.24
75146;BME280;63641;46.526;24.612;2023-02-01T04:49:35;96954.00;;;-1.03;75.13
75146;BME280;63641;46.526;24.612;2023-02-01T04:52:03;96980.25;;;-0.88;75.42
75146;BME280;63641;46.526;24.612;2023-02-01T04:54:30;96984.72;;;-0.89;75.36
75146;BME280;63641;46.526;24.612;2023-02-01T04:56:57;96978.22;;;-0.93;75.45
75146;BME280;63641;46.526;24.612;2023-02-01T04:59:23;96965.84;;;-0.99;75.04
75146;BME280;63641;46.526;24.612;2023-02-01T05:01:50;96985.91;;;-0.85;75.22
75146;BME280;63641;46.526;24.612;2023-02-01T05:04:17;96987.56;;;-0.84;75.16
75146;BME280;63641;46.526;24.612;2023-02-01T05:06:46;96979.00;;;-0.86;75.15
75146;BME280;63641;46.526;24.612;2023-02-01T05:09:13;96977.75;;;-0.83;75.07
75146;BME280;63641;46.526;24.612;2023-02-01T05:11:40;96967.78;;;-0.88;75.25
75146;BME280;63641;46.526;24.612;2023-02-01T05:14:26;96962.69;;;-0.89;75.38
75146;BME280;63641;46.526;24.612;2023-02-01T05:16:53;96964.53;;;-0.90;75.16
75146;BME280;63641;46.526;24.612;2023-02-01T05:19:19;96968.22;;;-0.91;75.49
75146;BME280;63641;46.526;24.612;2023-02-01T05:21:46;96983.91;;;-0.89;75.22
75146;BME280;63641;46.526;24.612;2023-02-01T05:24:13;96985.56;;;-0.88;75.23
75146;BME280;63641;46.526;24.612;2023-02-01T05:26:42;96981.50;;;-0.91;75.43
75146;BME280;63641;46.526;24.612;2023-02-01T05:29:10;96982.31;;;-0.90;75.22
75146;BME280;63641;46.526;24.612;2023-02-01T05:31:36;96984.16;;;-0.91;75.42
75146;BME280;63641;46.526;24.612;2023-02-01T05:34:03;96995.53;;;-0.84;75.39
75146;BME280;63641;46.526;24.612;2023-02-01T05:36:31;96985.34;;;-0.87;75.47
75146;BME280;63641;46.526;24.612;2023-02-01T05:38:58;96979.00;;;-0.86;75.23
75146;BME280;63641;46.526;24.612;2023-02-01T05:41:24;96978.19;;;-0.86;75.41
75146;BME280;63641;46.526;24.612;2023-02-01T05:43:51;96976.75;;;-0.89;75.28
75146;BME280;63641;46.526;24.612;2023-02-01T05:46:18;96980.84;;;-0.86;75.35
75146;BME280;63641;46.526;24.612;2023-02-01T05:48:45;96981.44;;;-0.84;75.30
75146;BME280;63641;46.526;24.612;2023-02-01T05:51:12;96977.16;;;-0.85;75.43
75146;BME280;63641;46.526;24.612;2023-02-01T05:53:39;96977.38;;;-0.87;75.16
75146;BME280;63641;46.526;24.612;2023-02-01T05:56:06;96978.34;;;-0.81;75.18
75146;BME280;63641;46.526;24.612;2023-02-01T05:58:33;96981.81;;;-0.81;75.23
75146;BME280;63641;46.526;24.612;2023-02-01T06:01:00;96990.38;;;-0.79;75.19
75146;BME280;63641;46.526;24.612;2023-02-01T06:03:27;96991.38;;;-0.73;75.08
75146;BME280;63641;46.526;24.612;2023-02-01T06:05:54;96992.97;;;-0.72;75.27
75146;BME280;63641;46.526;24.612;2023-02-01T06:08:21;96993.66;;;-0.77;74.94
75146;BME280;63641;46.526;24.612;2023-02-01T06:10:50;97001.75;;;-0.71;75.13
75146;BME280;63641;46.526;24.612;2023-02-01T06:13:18;97006.78;;;-0.63;75.48
75146;BME280;63641;46.526;24.612;2023-02-01T06:15:46;97000.47;;;-0.62;74.79
75146;BME280;63641;46.526;24.612;2023-02-01T06:18:13;97000.84;;;-0.59;75.25
75146;BME280;63641;46.526;24.612;2023-02-01T06:20:42;97002.84;;;-0.54;75.12
75146;BME280;63641;46.526;24.612;2023-02-01T06:23:09;97004.47;;;-0.53;74.93
75146;BME280;63641;46.526;24.612;2023-02-01T06:25:36;97004.41;;;-0.46;74.96
75146;BME280;63641;46.526;24.612;2023-02-01T06:28:04;97003.38;;;-0.45;74.92
75146;BME280;63641;46.526;24.612;2023-02-01T06:30:32;97002.13;;;-0.43;75.16
75146;BME280;63641;46.526;24.612;2023-02-01T06:32:59;97008.19;;;-0.36;74.91
75146;BME280;63641;46.526;24.612;2023-02-01T06:35:26;97002.22;;;-0.31;74.74
75146;BME280;63641;46.526;24.612;2023-02-01T06:37:53;96990.97;;;-0.33;74.91
75146;BME280;63641;46.526;24.612;2023-02-01T06:40:20;96992.38;;;-0.31;75.04
75146;BME280;63641;46.526;24.612;2023-02-01T06:42:48;96990.47;;;-0.23;74.99
75146;BME280;63641;46.526;24.612;2023-02-01T06:45:16;96998.00;;;-0.20;74.77
75146;BME280;63641;46.526;24.612;2023-02-01T06:47:43;96998.63;;;-0.18;74.43
75146;BME280;63641;46.526;24.612;2023-02-01T06:50:10;97007.16;;;-0.16;74.74
75146;BME280;63641;46.526;24.612;2023-02-01T06:52:37;97008.16;;;-0.11;74.92
75146;BME280;63641;46.526;24.612;2023-02-01T06:55:03;97007.31;;;-0.11;74.60
75146;BME280;63641;46.526;24.612;2023-02-01T06:57:30;97017.88;;;-0.05;74.68
75146;BME280;63641;46.526;24.612;2023-02-01T06:59:59;97007.03;;;-0.03;74.92
75146;BME280;63641;46.526;24.612;2023-02-01T07:02:26;97005.56;;;0.01;74.68
75146;BME280;63641;46.526;24.612;2023-02-01T07:04:53;97016.50;;;0.11;74.97
75146;BME280;63641;46.526;24.612;2023-02-01T07:07:20;97014.34;;;0.20;74.87
75146;BME280;63641;46.526;24.612;2023-02-01T07:09:49;97020.84;;;0.24;74.78
75146;BME280;63641;46.526;24.612;2023-02-01T07:12:16;97024.69;;;0.28;74.37
75146;BME280;63641;46.526;24.612;2023-02-01T07:14:43;97015.66;;;0.29;74.68
75146;BME280;63641;46.526;24.612;2023-02-01T07:17:10;97023.81;;;0.34;74.50
75146;BME280;63641;46.526;24.612;2023-02-01T07:19:37;97019.66;;;0.38;74.48
75146;BME280;63641;46.526;24.612;2023-02-01T07:22:04;97030.78;;;0.47;74.40
75146;BME280;63641;46.526;24.612;2023-02-01T07:24:30;97026.66;;;0.51;74.46
75146;BME280;63641;46.526;24.612;2023-02-01T07:26:57;97028.06;;;0.54;74.29
75146;BME280;63641;46.526;24.612;2023-02-01T07:29:24;97028.19;;;0.59;74.62
75146;BME280;63641;46.526;24.612;2023-02-01T07:31:51;97032.06;;;0.63;74.34
75146;BME280;63641;46.526;24.612;2023-02-01T07:34:17;97030.19;;;0.63;74.56
75146;BME280;63641;46.526;24.612;2023-02-01T07:36:45;97019.09;;;0.66;74.45
75146;BME280;63641;46.526;24.612;2023-02-01T07:39:12;97028.47;;;0.69;74.16
75146;BME280;63641;46.526;24.612;2023-02-01T07:41:38;97023.94;;;0.69;74.53
75146;BME280;63641;46.526;24.612;2023-02-01T07:44:05;97032.09;;;0.75;74.57
75146;BME280;63641;46.526;24.612;2023-02-01T07:46:32;97011.59;;;0.75;74.60
75146;BME280;63641;46.526;24.612;2023-02-01T07:48:59;97013.56;;;0.80;74.40
75146;BME280;63641;46.526;24.612;2023-02-01T07:51:25;97010.09;;;0.79;74.42
75146;BME280;63641;46.526;24.612;2023-02-01T07:53:52;97027.03;;;0.85;74.26
75146;BME280;63641;46.526;24.612;2023-02-01T07:56:22;97014.91;;;0.89;74.58
75146;BME280;63641;46.526;24.612;2023-02-01T07:58:53;97026.47;;;0.94;74.34
75146;BME280;63641;46.526;24.612;2023-02-01T08:01:28;97015.28;;;1.04;74.27
75146;BME280;63641;46.526;24.612;2023-02-01T08:04:00;97020.72;;;1.09;74.26
75146;BME280;63641;46.526;24.612;2023-02-01T08:06:31;97014.94;;;1.12;74.39
75146;BME280;63641;46.526;24.612;2023-02-01T08:08:58;97003.22;;;1.13;74.52
75146;BME280;63641;46.526;24.612;2023-02-01T08:11:25;96997.34;;;1.11;74.31
75146;BME280;63641;46.526;24.612;2023-02-01T08:13:53;97000.94;;;1.17;74.38
75146;BME280;63641;46.526;24.612;2023-02-01T08:16:21;96996.53;;;1.23;74.04
75146;BME280;63641;46.526;24.612;2023-02-01T08:18:50;97005.09;;;1.25;74.31
75146;BME280;63641;46.526;24.612;2023-02-01T08:21:24;97003.38;;;1.30;74.18
75146;BME280;63641;46.526;24.612;2023-02-01T08:23:51;97009.06;;;1.34;74.02
75146;BME280;63641;46.526;24.612;2023-02-01T08:26:23;97002.47;;;1.36;74.35
75146;BME280;63641;46.526;24.612;2023-02-01T08:28:58;97002.25;;;1.38;74.06
75146;BME280;63641;46.526;24.612;2023-02-01T08:31:27;97008.84;;;1.47;73.90
75146;BME280;63641;46.526;24.612;2023-02-01T08:33:57;97013.38;;;1.58;73.77
75146;BME280;63641;46.526;24.612;2023-02-01T08:36:26;97011.75;;;1.69;73.80
75146;BME280;63641;46.526;24.612;2023-02-01T08:38:53;97017.56;;;1.78;73.65
75146;BME280;63641;46.526;24.612;2023-02-01T08:41:23;97010.81;;;1.87;73.32
75146;BME280;63641;46.526;24.612;2023-02-01T08:43:51;97015.69;;;1.90;73.26
75146;BME280;63641;46.526;24.612;2023-02-01T08:46:18;97014.63;;;1.91;73.51
75146;BME280;63641;46.526;24.612;2023-02-01T08:48:46;96994.56;;;1.77;73.55
75146;BME280;63641;46.526;24.612;2023-02-01T08:51:15;97015.47;;;1.91;73.40
75146;BME280;63641;46.526;24.612;2023-02-01T08:53:42;97004.66;;;1.86;73.35
75146;BME280;63641;46.526;24.612;2023-02-01T08:56:11;97018.16;;;1.91;73.49
75146;BME280;63641;46.526;24.612;2023-02-01T08:58:39;97021.72;;;1.97;73.51
75146;BME280;63641;46.526;24.612;2023-02-01T09:01:07;97024.72;;;2.01;73.42
75146;BME280;63641;46.526;24.612;2023-02-01T09:03:35;97026.69;;;2.05;73.24
75146;BME280;63641;46.526;24.612;2023-02-01T09:06:03;97025.97;;;2.10;73.49
75146;BME280;63641;46.526;24.612;2023-02-01T09:08:31;97026.09;;;2.15;73.05
75146;BME280;63641;46.526;24.612;2023-02-01T09:11:04;97017.97;;;2.22;72.75
75146;BME280;63641;46.526;24.612;2023-02-01T09:13:34;97021.88;;;2.31;72.97
75146;BME280;63641;46.526;24.612;2023-02-01T09:16:02;97010.75;;;2.34;72.56
75146;BME280;63641;46.526;24.612;2023-02-01T09:18:30;97021.06;;;2.42;72.49
75146;BME280;63641;46.526;24.612;2023-02-01T09:20:57;97013.84;;;2.42;72.40
75146;BME280;63641;46.526;24.612;2023-02-01T09:23:24;97014.44;;;2.45;72.62
75146;BME280;63641;46.526;24.612;2023-02-01T09:25:51;97005.16;;;2.47;72.33
75146;BME280;63641;46.526;24.612;2023-02-01T09:28:19;97008.28;;;2.44;72.56
75146;BME280;63641;46.526;24.612;2023-02-01T09:30:46;97002.59;;;2.40;72.62
75146;BME280;63641;46.526;24.612;2023-02-01T09:33:13;97001.34;;;2.43;72.64
75146;BME280;63641;46.526;24.612;2023-02-01T09:35:40;97008.38;;;2.49;72.40
75146;BME280;63641;46.526;24.612;2023-02-01T09:38:06;97007.31;;;2.50;72.45
75146;BME280;63641;46.526;24.612;2023-02-01T09:40:34;97002.94;;;2.44;72.73
75146;BME280;63641;46.526;24.612;2023-02-01T09:48:29;96999.13;;;2.40;73.00
75146;BME280;63641;46.526;24.612;2023-02-01T09:50:59;96993.53;;;2.41;72.78
75146;BME280;63641;46.526;24.612;2023-02-01T09:53:38;96981.84;;;2.31;72.59
75146;BME280;63641;46.526;24.612;2023-02-01T09:58:39;96995.78;;;2.33;72.71
75146;BME280;63641;46.526;24.612;2023-02-01T10:01:20;96999.97;;;2.29;73.01
75146;BME280;63641;46.526;24.612;2023-02-01T10:03:48;97004.28;;;2.18;73.41
75146;BME280;63641;46.526;24.612;2023-02-01T10:20:30;96990.19;;;1.82;74.05
75146;BME280;63641;46.526;24.612;2023-02-01T10:23:18;96991.78;;;1.83;74.20
75146;BME280;63641;46.526;24.612;2023-02-01T10:26:25;96998.44;;;1.81;74.48
75146;BME280;63641;46.526;24.612;2023-02-01T10:28:57;96999.09;;;1.76;74.54
75146;BME280;63641;46.526;24.612;2023-02-01T10:31:27;96996.34;;;1.71;74.64
75146;BME280;63641;46.526;24.612;2023-02-01T10:33:58;96999.13;;;1.64;74.57
75146;BME280;63641;46.526;24.612;2023-02-01T10:38:58;96978.50;;;1.48;74.81
75146;BME280;63641;46.526;24.612;2023-02-01T10:41:31;96985.69;;;1.59;75.12
75146;BME280;63641;46.526;24.612;2023-02-01T10:44:00;96987.53;;;1.59;75.14
75146;BME280;63641;46.526;24.612;2023-02-01T10:46:30;96988.22;;;1.66;74.93
75146;BME280;63641;46.526;24.612;2023-02-01T10:49:00;96987.03;;;1.62;74.95
75146;BME280;63641;46.526;24.612;2023-02-01T10:51:58;96995.41;;;1.65;75.22
75146;BME280;63641;46.526;24.612;2023-02-01T10:54:38;96994.38;;;1.66;75.21
75146;BME280;63641;46.526;24.612;2023-02-01T10:57:10;96993.78;;;1.64;75.44
75146;BME280;63641;46.526;24.612;2023-02-01T10:59:45;96983.81;;;1.60;75.23
75146;BME280;63641;46.526;24.612;2023-02-01T11:02:31;96977.78;;;1.64;75.28
75146;BME280;63641;46.526;24.612;2023-02-01T11:05:09;96973.13;;;1.72;75.25
75146;BME280;63641;46.526;24.612;2023-02-01T11:07:40;96968.59;;;1.72;75.17
75146;BME280;63641;46.526;24.612;2023-02-01T11:13:05;96973.38;;;1.82;75.00
75146;BME280;63641;46.526;24.612;2023-02-01T11:15:32;96965.47;;;1.87;75.33
75146;BME280;63641;46.526;24.612;2023-02-01T11:18:15;96975.09;;;1.88;75.38
75146;BME280;63641;46.526;24.612;2023-02-01T11:20:42;96962.22;;;1.85;75.12
75146;BME280;63641;46.526;24.612;2023-02-01T11:23:18;96966.28;;;1.87;75.19
75146;BME280;63641;46.526;24.612;2023-02-01T11:25:55;96972.91;;;1.85;75.51
75146;BME280;63641;46.526;24.612;2023-02-01T11:28:25;96972.56;;;1.81;75.48
75146;BME280;63641;46.526;24.612;2023-02-01T11:30:55;96977.66;;;1.83;75.45
75146;BME280;63641;46.526;24.612;2023-02-01T11:33:26;96972.31;;;1.83;75.68
75146;BME280;63641;46.526;24.612;2023-02-01T11:36:00;96964.91;;;1.85;75.26
75146;BME280;63641;46.526;24.612;2023-02-01T11:38:30;96978.00;;;1.86;75.43
75146;BME280;63641;46.526;24.612;2023-02-01T11:41:14;96976.59;;;1.84;75.57
75146;BME280;63641;46.526;24.612;2023-02-01T11:43:52;96977.91;;;1.81;75.47
75146;BME280;63641;46.526;24.612;2023-02-01T11:46:23;96975.69;;;1.78;75.75
75146;BME280;63641;46.526;24.612;2023-02-01T11:48:53;96971.88;;;1.74;75.82
75146;BME280;63641;46.526;24.612;2023-02-01T11:51:36;96984.97;;;1.76;75.84
75146;BME280;63641;46.526;24.612;2023-02-01T12:08:09;96983.13;;;1.64;76.51
75146;BME280;63641;46.526;24.612;2023-02-01T12:13:41;96983.69;;;1.66;76.39
75146;BME280;63641;46.526;24.612;2023-02-01T12:22:35;96979.63;;;1.76;76.62
75146;BME280;63641;46.526;24.612;2023-02-01T12:25:34;96977.09;;;1.81;76.37
75146;BME280;63641;46.526;24.612;2023-02-01T12:28:31;96969.44;;;1.84;76.28
75146;BME280;63641;46.526;24.612;2023-02-01T12:39:31;96966.81;;;2.13;75.48
75146;BME280;63641;46.526;24.612;2023-02-01T12:44:37;96962.13;;;2.20;75.30
75146;BME280;63641;46.526;24.612;2023-02-01T12:52:44;96963.34;;;2.41;75.29
75146;BME280;63641;46.526;24.612;2023-02-01T12:58:24;96966.72;;;2.65;74.90
75146;BME280;63641;46.526;24.612;2023-02-01T13:01:05;96961.34;;;2.77;74.65
75146;BME280;63641;46.526;24.612;2023-02-01T13:03:42;96966.78;;;2.82;74.64
75146;BME280;63641;46.526;24.612;2023-02-01T13:09:00;96977.97;;;2.96;74.42
75146;BME280;63641;46.526;24.612;2023-02-01T13:11:48;96966.38;;;2.90;74.18
75146;BME280;63641;46.526;24.612;2023-02-01T13:14:37;96966.72;;;2.94;74.33
75146;BME280;63641;46.526;24.612;2023-02-01T13:17:27;96973.84;;;2.88;74.20
75146;BME280;63641;46.526;24.612;2023-02-01T13:20:04;96967.91;;;2.86;74.22
75146;BME280;63641;46.526;24.612;2023-02-01T13:22:43;96954.56;;;2.86;74.43
75146;BME280;63641;46.526;24.612;2023-02-01T13:25:26;96969.97;;;2.96;74.27
75146;BME280;63641;46.526;24.612;2023-02-01T13:28:00;96972.31;;;2.92;73.94
75146;BME280;63641;46.526;24.612;2023-02-01T13:44:30;96963.25;;;3.10;73.58
75146;BME280;63641;46.526;24.612;2023-02-01T13:47:01;96963.25;;;3.10;73.70
75146;BME280;63641;46.526;24.612;2023-02-01T13:49:33;96960.75;;;3.03;73.47
75146;BME280;63641;46.526;24.612;2023-02-01T13:52:04;96969.63;;;3.09;73.29
75146;BME280;63641;46.526;24.612;2023-02-01T13:54:33;96970.94;;;3.06;73.33
75146;BME280;63641;46.526;24.612;2023-02-01T13:57:04;96970.84;;;3.01;73.61
75146;BME280;63641;46.526;24.612;2023-02-01T13:59:36;96970.03;;;3.01;73.49
75146;BME280;63641;46.526;24.612;2023-02-01T14:05:09;96969.72;;;2.97;73.44
75146;BME280;63641;46.526;24.612;2023-02-01T14:07:36;96972.31;;;2.92;73.60
75146;BME280;63641;46.526;24.612;2023-02-01T14:13:34;96972.94;;;2.82;73.52
75146;BME280;63641;46.526;24.612;2023-02-01T14:26:25;96958.03;;;2.70;73.89
75146;BME280;63641;46.526;24.612;2023-02-01T14:29:41;96959.06;;;2.69;73.54
75146;BME280;63641;46.526;24.612;2023-02-01T14:42:21;96959.63;;;2.71;73.60
75146;BME280;63641;46.526;24.612;2023-02-01T14:44:49;96952.69;;;2.70;73.38
75146;BME280;63641;46.526;24.612;2023-02-01T14:47:26;96958.03;;;2.70;73.55
75146;BME280;63641;46.526;24.612;2023-02-01T14:50:03;96952.69;;;2.70;73.62
75146;BME280;63641;46.526;24.612;2023-02-01T14:55:49;96947.34;;;2.70;73.29
75146;BME280;63641;46.526;24.612;2023-02-01T15:01:46;96951.22;;;2.62;73.40
75146;BME280;63641;46.526;24.612;2023-02-01T15:04:17;96955.75;;;2.61;73.27
75146;BME280;63641;46.526;24.612;2023-02-01T15:06:57;96957.56;;;2.61;73.63
75146;BME280;63641;46.526;24.612;2023-02-01T15:09:33;96945.41;;;2.53;73.66
75146;BME280;63641;46.526;24.612;2023-02-01T15:14:41;96940.00;;;2.48;73.36
75146;BME280;63641;46.526;24.612;2023-02-01T15:17:24;96956.50;;;2.45;73.26
75146;BME280;63641;46.526;24.612;2023-02-01T15:20:03;96951.75;;;2.47;73.67
75146;BME280;63641;46.526;24.612;2023-02-01T15:22:34;96943.63;;;2.42;73.42
75146;BME280;63641;46.526;24.612;2023-02-01T15:25:01;96943.13;;;2.45;73.54
75146;BME280;63641;46.526;24.612;2023-02-01T15:27:31;96954.06;;;2.44;73.62
75146;BME280;63641;46.526;24.612;2023-02-01T15:30:12;96948.94;;;2.42;73.50
75146;BME280;63641;46.526;24.612;2023-02-01T15:32:42;96959.28;;;2.38;73.45
75146;BME280;63641;46.526;24.612;2023-02-01T15:36:06;96955.81;;;2.38;73.70
75146;BME280;63641;46.526;24.612;2023-02-01T15:43:42;96961.53;;;2.30;73.71
75146;BME280;63641;46.526;24.612;2023-02-01T15:46:15;96963.06;;;2.26;73.94
75146;BME280;63641;46.526;24.612;2023-02-01T15:48:46;96964.13;;;2.25;74.02
75146;BME280;63641;46.526;24.612;2023-02-01T15:51:22;96954.59;;;2.17;73.73
75146;BME280;63641;46.526;24.612;2023-02-01T15:56:27;96948.78;;;2.20;73.92
75146;BME280;63641;46.526;24.612;2023-02-01T15:58:57;96957.06;;;2.18;73.88
75146;BME280;63641;46.526;24.612;2023-02-01T16:01:25;96953.56;;;2.18;74.16
75146;BME280;63641;46.526;24.612;2023-02-01T16:04:04;96953.31;;;2.20;73.83